Time;durP1;ratioP1;P1;durP2;ratioP2;P2;SDS_P1;SDS_P2;PMS_P1;PMS_P2;Temp;Humidity;BMP_temperature;BMP_pressure;BME280_temperature;BME280_humidity;BME280_pressure;Samples;Min_cycle;Max_cycle;Signal;HPM_P1;HPM_P2
2023/01/12 00:01:11;;;;;;;21.35;12.70;;;6.80;99.90;;;;;;6289311;22;20087;-92
2023/01/12 00:03:38;;;;;;;17.30;13.25;;;6.80;99.90;;;;;;6289123;22;20030;-93
2023/01/12 00:06:08;;;;;;;20.08;13.90;;;6.70;99.90;;;;;;6284047;22;19999;-91
2023/01/12 00:08:39;;;;;;;19.88;14.10;;;6.60;99.90;;;;;;6290174;22;20007;-93
2023/01/12 00:11:09;;;;;;;19.20;13.02;;;6.60;99.90;;;;;;6289312;22;20025;-92
2023/01/12 00:13:36;;;;;;;17.73;13.32;;;6.50;99.90;;;;;;6290431;22;20007;-92
2023/01/12 00:18:49;;;;;;;18.58;13.35;;;6.40;99.90;;;;;;6283875;22;20034;-94
2023/01/12 00:21:16;;;;;;;29.27;17.92;;;6.30;99.90;;;;;;6258472;22;20003;-91
2023/01/12 00:23:44;;;;;;;21.80;14.15;;;6.30;99.90;;;;;;6257606;22;20003;-91
2023/01/12 00:39:41;;;;;;;20.80;12.95;;;6.10;99.90;;;;;;6287592;22;20034;-92
2023/01/12 04:39:24;;;;;;;15.20;10.02;;;5.70;99.90;;;;;;6285551;22;20031;-91
2023/01/12 04:45:16;;;;;;;11.90;9.88;;;5.70;99.90;;;;;;6162343;23;20013;-93
2023/01/12 04:47:52;;;;;;;13.40;9.88;;;5.80;99.90;;;;;;6138631;23;20008;-93
2023/01/12 04:50:24;;;;;;;16.60;9.65;;;5.80;99.90;;;;;;6137466;23;20454;-92
2023/01/12 04:52:55;;;;;;;12.75;9.88;;;5.80;99.90;;;;;;6137742;23;20144;-91
2023/01/12 04:55:25;;;;;;;14.52;10.40;;;5.80;99.90;;;;;;6155872;23;20039;-91
2023/01/12 04:57:52;;;;;;;12.10;9.77;;;5.80;99.90;;;;;;6157864;23;20087;-91
2023/01/12 05:00:19;;;;;;;13.90;10.13;;;5.90;99.90;;;;;;6137087;23;20069;-93
2023/01/12 05:02:46;;;;;;;13.35;9.57;;;5.80;99.90;;;;;;6137420;23;20100;-92
2023/01/12 05:05:16;;;;;;;12.13;10.23;;;5.80;99.90;;;;;;6137979;23;20017;-92
2023/01/12 05:10:21;;;;;;;12.13;9.40;;;5.80;99.90;;;;;;6161386;23;20013;-91
2023/01/12 05:10:38;;;;;;;14.93;9.52;;;5.90;99.90;;;;;;6161449;23;20109;-90
2023/01/12 05:13:05;;;;;;;14.10;9.85;;;5.90;99.90;;;;;;6136878;23;20012;-92
2023/01/12 05:15:32;;;;;;;16.38;9.32;;;6.00;99.90;;;;;;6137306;23;20013;-93
2023/01/12 05:17:59;;;;;;;13.43;9.25;;;6.00;99.90;;;;;;6137136;23;20522;-92
2023/01/12 05:20:29;;;;;;;13.20;9.80;;;6.00;99.90;;;;;;6153955;22;20403;-89
2023/01/12 05:22:58;;;;;;;14.77;9.80;;;6.10;99.90;;;;;;6258370;22;20453;-92
2023/01/12 05:25:46;;;;;;;10.13;9.05;;;6.10;99.90;;;;;;6258153;22;20008;-92
2023/01/12 05:28:28;;;;;;;10.30;9.32;;;6.10;99.90;;;;;;6259969;22;20007;-92
2023/01/12 05:31:03;;;;;;;13.05;10.23;;;6.10;99.90;;;;;;6257553;22;20022;-96
2023/01/12 05:33:31;;;;;;;22.08;11.05;;;6.10;99.90;;;;;;6257587;22;20333;-92
2023/01/12 05:35:57;;;;;;;13.65;11.55;;;6.00;99.90;;;;;;6256969;22;19999;-93
2023/01/12 05:38:24;;;;;;;13.93;10.07;;;6.00;99.90;;;;;;6252166;22;20091;-92
2023/01/12 05:40:51;;;;;;;13.25;10.30;;;6.00;99.90;;;;;;6257136;22;20015;-92
2023/01/12 05:46:04;;;;;;;13.40;10.98;;;6.00;99.90;;;;;;6283236;22;20329;-93
2023/01/12 05:48:31;;;;;;;12.43;10.82;;;6.00;99.90;;;;;;6257120;22;20007;-91
2023/01/12 05:51:02;;;;;;;16.58;10.93;;;6.00;99.90;;;;;;6256733;22;20329;-92
2023/01/12 05:57:23;;;;;;;15.73;9.73;;;6.10;99.90;;;;;;6165664;23;20001;-92
2023/01/12 06:00:29;;;;;;;;;;;;;;;;;;;;;
2023/01/12 06:02:58;;;;;;;10.73;9.70;;;6.20;99.90;;;;;;6132890;23;20009;-93
2023/01/12 06:05:40;;;;;;;12.20;10.70;;;6.10;99.90;;;;;;6109649;23;20440;-93
2023/01/12 06:08:09;;;;;;;16.23;10.60;;;6.10;99.90;;;;;;6139478;23;20018;-92
2023/01/12 06:10:50;;;;;;;12.27;10.32;;;6.10;99.90;;;;;;6133074;23;20033;-94
2023/01/12 06:16:13;;;;;;;11.77;10.40;;;6.00;99.90;;;;;;6131727;23;20009;-91
2023/01/12 06:18:41;;;;;;;15.27;11.55;;;6.00;99.90;;;;;;6132197;23;19997;-94
2023/01/12 06:21:09;;;;;;;18.67;11.85;;;5.90;99.90;;;;;;6131270;23;20005;-92
2023/01/12 06:23:39;;;;;;;12.50;11.13;;;5.90;99.90;;;;;;6131233;23;20010;-94
2023/01/12 06:29:06;;;;;;;14.27;10.38;;;6.00;99.90;;;;;;6315450;22;20027;-93
2023/01/12 06:31:33;;;;;;;11.13;9.50;;;6.20;99.90;;;;;;6251498;22;20023;-92
2023/01/12 06:33:59;;;;;;;11.68;9.13;;;6.20;99.90;;;;;;6256543;22;20022;-92
2023/01/12 06:36:26;;;;;;;14.32;9.30;;;6.30;99.90;;;;;;6256617;22;20008;-92
2023/01/12 06:38:53;;;;;;;10.75;9.25;;;6.40;99.90;;;;;;6256645;22;20078;-95
2023/01/12 06:44:07;;;;;;;9.55;8.60;;;6.50;99.90;;;;;;6189830;23;20008;-93
2023/01/12 06:46:34;;;;;;;13.65;8.88;;;6.50;99.90;;;;;;6246359;22;20007;-91
2023/01/12 06:49:01;;;;;;;15.98;9.27;;;6.50;99.90;;;;;;6256466;22;20098;-92
2023/01/12 06:51:28;;;;;;;14.63;10.00;;;6.60;99.90;;;;;;6256206;22;20041;-92
2023/01/12 06:53:55;;;;;;;12.13;9.40;;;6.60;99.90;;;;;;6256454;22;20017;-92
2023/01/12 06:56:22;;;;;;;11.38;9.02;;;6.70;99.90;;;;;;6253791;22;20007;-94
2023/01/12 06:58:49;;;;;;;12.27;10.63;;;6.70;99.90;;;;;;6256507;22;20094;-93
2023/01/12 07:01:15;;;;;;;10.20;9.18;;;6.70;99.90;;;;;;6256248;22;20077;-92
2023/01/12 07:03:43;;;;;;;14.73;10.10;;;6.80;99.90;;;;;;6256175;22;20011;-92
2023/01/12 07:06:11;;;;;;;12.70;10.60;;;6.80;99.90;;;;;;6256983;22;20011;-92
2023/01/12 07:08:38;;;;;;;14.55;10.63;;;6.80;99.90;;;;;;6255985;22;20348;-93
2023/01/12 07:11:11;;;;;;;11.18;10.07;;;6.80;99.90;;;;;;6256025;22;20031;-92
2023/01/12 07:13:38;;;;;;;12.33;10.63;;;6.90;99.90;;;;;;6256371;22;20480;-93
2023/01/12 07:16:05;;;;;;;12.27;10.98;;;6.90;99.90;;;;;;6256012;22;20082;-93
2023/01/12 07:18:32;;;;;;;12.25;11.05;;;6.90;99.90;;;;;;6256250;22;20117;-92
2023/01/12 07:21:12;;;;;;;13.85;11.23;;;6.90;99.90;;;;;;6256946;22;20094;-91
2023/01/12 07:23:42;;;;;;;12.20;10.55;;;7.00;99.90;;;;;;6256073;22;20007;-92
2023/01/12 07:26:09;;;;;;;12.15;10.82;;;7.00;99.90;;;;;;6255999;22;20015;-90
2023/01/12 07:28:36;;;;;;;13.43;10.75;;;7.10;99.90;;;;;;6255710;22;20018;-92
2023/01/12 07:31:05;;;;;;;16.40;11.27;;;7.10;99.90;;;;;;6255862;22;20019;-92
2023/01/12 07:33:33;;;;;;;12.23;10.93;;;7.20;99.90;;;;;;6255991;22;20007;-92
2023/01/12 07:36:01;;;;;;;13.98;10.85;;;7.20;99.90;;;;;;6255993;22;20011;-92
2023/01/12 07:38:29;;;;;;;16.15;11.43;;;7.30;99.90;;;;;;6256109;22;20001;-92
2023/01/12 07:41:00;;;;;;;11.98;10.68;;;7.30;99.90;;;;;;6256109;22;20007;-93
2023/01/12 07:43:33;;;;;;;16.00;11.23;;;7.40;99.90;;;;;;6256137;22;20437;-91
2023/01/12 07:46:00;;;;;;;14.60;12.25;;;7.50;99.90;;;;;;6255918;22;20018;-91
2023/01/12 07:48:30;;;;;;;13.05;11.68;;;7.50;99.90;;;;;;6256184;22;19999;-94
2023/01/12 07:50:58;;;;;;;14.35;11.90;;;7.50;99.90;;;;;;6255689;22;20508;-90
2023/01/12 07:53:25;;;;;;;12.88;11.60;;;7.50;99.90;;;;;;6255491;22;20008;-93
2023/01/12 07:55:52;;;;;;;14.13;11.82;;;7.50;99.90;;;;;;6255876;22;20043;-93
2023/01/12 07:58:19;;;;;;;13.30;11.93;;;7.60;99.90;;;;;;6255951;22;20003;-92
2023/01/12 08:00:45;;;;;;;13.30;11.93;;;7.60;99.90;;;;;;6256025;22;20087;-93
2023/01/12 08:03:13;;;;;;;13.13;11.82;;;7.70;99.90;;;;;;6255538;22;20007;-91
2023/01/12 08:05:40;;;;;;;13.75;12.35;;;7.70;99.90;;;;;;6256510;22;20003;-93
2023/01/12 08:08:08;;;;;;;14.77;12.73;;;7.80;99.90;;;;;;6257674;22;20094;-93
2023/01/12 08:10:35;;;;;;;15.32;11.75;;;7.90;99.90;;;;;;6257390;22;20038;-91
2023/01/12 08:13:01;;;;;;;18.95;12.48;;;7.90;99.90;;;;;;6257966;22;20007;-92
2023/01/12 08:15:37;;;;;;;17.00;11.77;;;8.00;99.90;;;;;;6257692;22;20026;-93
2023/01/12 08:18:14;;;;;;;13.02;11.52;;;8.10;99.90;;;;;;6257664;22;20094;-91
2023/01/12 08:20:42;;;;;;;13.10;11.73;;;8.20;99.90;;;;;;6257590;22;20007;-92
2023/01/12 08:23:27;;;;;;;14.40;11.98;;;8.30;99.90;;;;;;6257182;22;20015;-92
2023/01/12 08:25:59;;;;;;;11.68;10.65;;;8.40;99.90;;;;;;6257624;22;20017;-93
2023/01/12 08:28:40;;;;;;;15.68;11.80;;;8.60;99.90;;;;;;6256967;22;20027;-94
2023/01/12 08:31:08;;;;;;;13.32;12.18;;;8.80;99.90;;;;;;6257318;22;20019;-92
2023/01/12 08:33:36;;;;;;;14.73;12.82;;;8.90;99.90;;;;;;6257482;22;20082;-91
2023/01/12 08:36:06;;;;;;;14.80;13.38;;;9.10;99.90;;;;;;6226848;22;20031;-91
2023/01/12 08:38:32;;;;;;;16.52;14.82;;;9.30;99.90;;;;;;6200302;23;20008;-87
2023/01/12 08:53:25;;;;;;;20.98;16.25;;;10.10;99.90;;;;;;6311783;22;20049;-94
2023/01/12 08:55:53;;;;;;;20.77;17.55;;;10.20;99.90;;;;;;6284082;22;20030;-93
2023/01/12 08:58:22;;;;;;;22.13;15.98;;;10.20;99.90;;;;;;6259086;22;20003;-93
2023/01/12 09:00:49;;;;;;;18.88;15.15;;;10.30;99.90;;;;;;6258814;22;20007;-92
2023/01/12 09:03:16;;;;;;;18.38;15.27;;;10.40;99.90;;;;;;6261297;22;20007;-91
2023/01/12 09:05:46;;;;;;;19.50;15.63;;;10.50;99.90;;;;;;6258675;22;20011;-92
2023/01/12 09:08:13;;;;;;;22.30;14.93;;;10.50;99.90;;;;;;6258162;22;20010;-92
2023/01/12 09:10:40;;;;;;;21.20;15.55;;;10.60;99.90;;;;;;6258313;22;20015;-92
2023/01/12 09:13:07;;;;;;;16.80;15.20;;;10.70;99.90;;;;;;6261476;22;20008;-91
2023/01/12 09:18:09;;;;;;;21.05;16.30;;;11.00;99.90;;;;;;6278287;22;20030;-92
2023/01/12 09:20:35;;;;;;;26.02;16.42;;;11.20;99.90;;;;;;6258283;22;20191;-93
2023/01/12 09:23:03;;;;;;;17.45;15.18;;;11.20;99.90;;;;;;6261743;22;20056;-91
2023/01/12 09:25:29;;;;;;;17.55;15.77;;;11.60;99.90;;;;;;6259916;22;20436;-92
2023/01/12 09:28:58;;;;;;;17.60;15.88;;;11.70;99.90;;;;;;6263426;22;20019;-93
2023/01/12 09:31:27;;;;;;;16.52;14.85;;;12.10;99.90;;;;;;6137543;23;20025;-91
2023/01/12 09:33:55;;;;;;;16.20;14.60;;;12.30;99.90;;;;;;6144892;23;20024;-92
2023/01/12 09:36:27;;;;;;;17.42;15.10;;;12.60;99.90;;;;;;6162539;23;20088;-91
2023/01/12 09:38:54;;;;;;;15.88;14.13;;;12.60;99.90;;;;;;6136464;23;20013;-92
2023/01/12 09:47:55;;;;;;;16.15;14.85;;;12.60;99.90;;;;;;6248025;22;20323;-93
2023/01/12 09:50:24;;;;;;;15.38;14.18;;;12.50;99.90;;;;;;6221707;23;20024;-92
2023/01/12 10:41:26;;;;;;;;;;;;;;;;;;;;;
2023/01/12 10:44:29;;;;;;;14.20;13.30;;;13.00;99.90;;;;;;6317352;22;20034;-94
2023/01/12 11:55:03;;;;;;;17.67;16.27;;;12.60;99.90;;;;;;6311679;22;20030;-90
2023/01/12 12:15:42;;;;;;;;;;;;;;;;;;;;;
2023/01/12 13:59:05;;;;;;;17.05;15.85;;;12.00;99.90;;;;;;6277612;22;19934;-94
2023/01/12 14:32:23;;;;;;;;;;;;;;;;;;;;;
2023/01/12 15:42:46;;;;;;;;;;;;;;;;;;;;;
2023/01/12 16:02:53;;;;;;;24.25;21.75;;;10.50;99.90;;;;;;5074996;27;20395;-92
2023/01/12 17:28:40;;;;;;;;;;;;;;;;;;;;;
2023/01/12 18:53:51;;;;;;;74.88;48.88;;;8.50;99.90;;;;;;5371119;22;20144;-94
2023/01/12 18:56:24;;;;;;;48.08;33.63;;;8.50;99.90;;;;;;4983106;28;20022;-92
2023/01/12 19:12:00;;;;;;;65.10;40.30;;;8.20;99.90;;;;;;4938640;29;20051;-92
2023/01/12 19:17:35;;;;;;;93.05;46.72;;;8.10;99.90;;;;;;4940613;29;20526;-93
2023/01/12 19:20:13;;;;;;;73.75;42.80;;;8.00;99.90;;;;;;4924230;29;20370;-95
2023/01/12 19:28:44;;;;;;;;;;;;;;;;;;;;;
2023/01/12 19:31:19;;;;;;;186.48;109.85;;;7.90;99.90;;;;;;4944847;29;20050;-94
2023/01/12 19:34:28;;;;;;;176.77;108.90;;;7.80;99.90;;;;;;4944832;29;20031;-93
2023/01/12 19:37:08;;;;;;;91.75;59.42;;;7.70;99.90;;;;;;4942486;28;20142;-93
2023/01/12 19:40:32;;;;;;;74.68;50.65;;;7.70;99.90;;;;;;4939684;29;20066;-93
2023/01/12 19:46:03;;;;;;;68.22;43.63;;;7.70;99.90;;;;;;5042235;23;20140;-93
2023/01/12 19:54:57;;;;;;;66.03;46.17;;;7.50;99.90;;;;;;5029476;23;20066;-94
2023/01/12 20:04:20;;;;;;;73.63;47.05;;;7.40;99.90;;;;;;4955832;28;20085;-93
2023/01/12 20:12:47;;;;;;;66.50;40.97;;;7.30;99.90;;;;;;5346762;23;20058;-93
2023/01/12 20:40:48;;;;;;;47.67;34.08;;;7.30;99.90;;;;;;5016020;28;20050;-93
2023/01/12 20:43:14;;;;;;;49.35;31.95;;;7.30;99.90;;;;;;4984437;28;20120;-92
2023/01/12 20:45:42;;;;;;;51.15;34.92;;;7.20;99.90;;;;;;4984643;28;20022;-91
2023/01/12 20:48:12;;;;;;;51.45;34.83;;;7.20;99.90;;;;;;4983091;28;20031;-92
2023/01/12 20:50:46;;;;;;;60.17;37.88;;;7.20;99.90;;;;;;4964683;28;20034;-92
2023/01/12 20:53:16;;;;;;;53.80;36.42;;;7.10;99.90;;;;;;4980543;28;20502;-91
2023/01/12 20:55:44;;;;;;;59.60;39.72;;;7.10;99.90;;;;;;4980641;28;20073;-91
2023/01/12 20:58:10;;;;;;;65.78;40.38;;;7.10;99.90;;;;;;4964722;28;20030;-92
2023/01/12 21:00:37;;;;;;;68.95;43.17;;;7.00;99.90;;;;;;4980462;28;20030;-90
2023/01/12 21:03:04;;;;;;;67.13;41.95;;;7.00;99.90;;;;;;4980991;28;20050;-91
2023/01/12 21:05:30;;;;;;;76.60;46.78;;;6.90;99.90;;;;;;4964407;28;20114;-94
2023/01/12 21:07:57;;;;;;;62.13;41.28;;;6.90;99.90;;;;;;4980099;28;20026;-92
2023/01/12 21:10:27;;;;;;;65.28;39.15;;;6.80;99.90;;;;;;4964252;28;20041;-91
2023/01/12 21:12:56;;;;;;;60.20;39.47;;;6.70;99.90;;;;;;4964567;28;20062;-92
2023/01/12 21:15:23;;;;;;;63.33;39.67;;;6.60;99.90;;;;;;4964517;28;20034;-93
2023/01/12 21:17:49;;;;;;;67.63;43.03;;;6.50;99.90;;;;;;4980823;28;20034;-91
2023/01/12 21:20:16;;;;;;;65.13;40.78;;;6.40;99.90;;;;;;4996562;28;20053;-92
2023/01/12 21:22:42;;;;;;;61.92;39.97;;;6.40;99.90;;;;;;4981323;28;20034;-93
2023/01/12 21:25:09;;;;;;;63.38;41.65;;;6.30;99.90;;;;;;4996993;28;20022;-92
2023/01/12 21:27:39;;;;;;;64.22;41.42;;;6.30;99.90;;;;;;4964439;28;20033;-92
2023/01/12 21:30:06;;;;;;;76.57;45.90;;;6.20;99.90;;;;;;4964086;28;20023;-93
2023/01/12 21:32:32;;;;;;;75.85;47.42;;;6.20;99.90;;;;;;4980213;28;20038;-92
2023/01/12 21:34:59;;;;;;;75.80;47.05;;;6.20;99.90;;;;;;4995967;28;20365;-92
2023/01/12 21:37:25;;;;;;;76.22;46.50;;;6.20;99.90;;;;;;4980236;28;20050;-90
2023/01/12 21:39:52;;;;;;;76.28;47.53;;;6.20;99.90;;;;;;5001761;28;20085;-91
2023/01/12 21:45:03;;;;;;;;;;;6.20;99.90;;;;;;5032352;28;20149;-91
2023/01/12 21:47:29;;;;;;;74.72;47.15;;;6.20;99.90;;;;;;4999154;28;19905;-92
2023/01/12 21:49:56;;;;;;;74.25;48.53;;;6.30;99.90;;;;;;5015436;28;20026;-91
2023/01/12 21:52:31;;;;;;;80.78;48.95;;;6.30;99.90;;;;;;5015611;28;20058;-92
2023/01/12 21:54:58;;;;;;;80.18;49.72;;;6.30;99.90;;;;;;5015294;28;20534;-92
2023/01/12 21:57:26;;;;;;;77.38;47.97;;;6.30;99.90;;;;;;5015362;28;20026;-93
2023/01/12 21:59:53;;;;;;;75.10;45.78;;;6.20;99.90;;;;;;5015384;28;20033;-92
2023/01/12 22:02:19;;;;;;;75.88;48.67;;;6.20;99.90;;;;;;5014877;28;20030;-89
2023/01/12 22:04:45;;;;;;;81.65;49.70;;;6.20;99.90;;;;;;5015159;28;20030;-90
2023/01/12 22:07:12;;;;;;;89.63;49.78;;;6.20;99.90;;;;;;5014932;28;20026;-90
2023/01/12 22:09:38;;;;;;;76.05;47.88;;;6.20;99.90;;;;;;5015154;28;20034;-89
2023/01/12 22:12:04;;;;;;;75.25;46.72;;;6.20;99.90;;;;;;5014755;28;20073;-88
2023/01/12 22:14:30;;;;;;;78.60;49.65;;;6.20;99.90;;;;;;5014888;28;20045;-91
2023/01/12 22:16:57;;;;;;;81.72;50.40;;;6.30;99.90;;;;;;4998650;28;20054;-90
2023/01/12 22:19:23;;;;;;;75.97;48.22;;;6.30;99.90;;;;;;5014829;28;20048;-92
2023/01/12 22:21:49;;;;;;;74.78;44.47;;;6.30;99.90;;;;;;5014704;28;20125;-91
2023/01/12 22:24:16;;;;;;;82.90;47.42;;;6.30;99.90;;;;;;4998496;28;20100;-91
2023/01/12 22:26:45;;;;;;;88.05;47.47;;;6.30;99.90;;;;;;5014952;28;20034;-91
2023/01/12 22:29:11;;;;;;;81.93;44.75;;;6.20;99.90;;;;;;4998457;28;20120;-93
2023/01/12 22:31:38;;;;;;;78.82;47.65;;;6.20;99.90;;;;;;5015461;28;20050;-92
2023/01/12 22:34:05;;;;;;;76.15;47.08;;;6.10;99.90;;;;;;5015087;28;20029;-91
2023/01/12 22:36:39;;;;;;;88.53;50.15;;;6.10;99.90;;;;;;5014960;28;20060;-92
2023/01/12 22:39:06;;;;;;;77.80;46.42;;;6.10;99.90;;;;;;4998554;28;20042;-89
2023/01/12 22:41:32;;;;;;;71.43;43.95;;;6.10;99.90;;;;;;4998281;28;20026;-91
2023/01/12 22:43:59;;;;;;;76.32;46.78;;;6.10;99.90;;;;;;5014794;28;20037;-91
2023/01/12 22:46:26;;;;;;;75.35;46.20;;;6.10;99.90;;;;;;4998461;28;20026;-91
2023/01/12 22:48:58;;;;;;;74.60;45.60;;;6.10;99.90;;;;;;5014578;28;20079;-90
2023/01/12 22:51:27;;;;;;;73.00;47.22;;;6.10;99.90;;;;;;5014330;28;20041;-90
2023/01/12 22:53:54;;;;;;;78.15;45.67;;;6.10;99.90;;;;;;4998025;28;20018;-92
2023/01/12 22:56:20;;;;;;;69.55;42.90;;;6.10;99.90;;;;;;4998009;28;20093;-89
2023/01/12 22:58:51;;;;;;;71.93;42.63;;;6.10;99.90;;;;;;5014185;28;20500;-92
2023/01/12 23:01:19;;;;;;;63.17;41.45;;;6.10;99.90;;;;;;4997651;28;20522;-91
2023/01/12 23:03:46;;;;;;;69.07;41.15;;;6.10;99.90;;;;;;5014049;28;20026;-92
2023/01/12 23:06:15;;;;;;;68.20;40.65;;;6.20;99.90;;;;;;5014350;28;20026;-92
2023/01/12 23:08:43;;;;;;;73.68;44.45;;;6.20;99.90;;;;;;5013954;28;20056;-92
2023/01/12 23:11:15;;;;;;;69.63;43.03;;;6.20;99.90;;;;;;4997752;28;20442;-90
2023/01/12 23:13:43;;;;;;;67.22;40.10;;;6.20;99.90;;;;;;5013948;28;20080;-90
2023/01/12 23:16:11;;;;;;;66.70;41.65;;;6.10;99.90;;;;;;5013853;28;20101;-94
2023/01/12 23:18:39;;;;;;;73.15;44.38;;;6.10;99.90;;;;;;5014296;28;20034;-90
2023/01/12 23:21:26;;;;;;;67.40;41.58;;;6.10;99.90;;;;;;5014667;28;20030;-93
2023/01/12 23:23:55;;;;;;;74.40;43.53;;;6.10;99.90;;;;;;5030443;28;20113;-91
2023/01/12 23:26:24;;;;;;;69.30;41.38;;;6.20;99.90;;;;;;5015133;28;20084;-93
2023/01/12 23:28:58;;;;;;;74.50;43.00;;;6.20;99.90;;;;;;4997949;28;20022;-92
2023/01/12 23:35:09;;;;;;;68.57;40.60;;;6.20;99.90;;;;;;4956721;29;20123;-91
2023/01/12 23:37:35;;;;;;;65.78;38.40;;;6.20;99.90;;;;;;4938798;29;20042;-91
2023/01/12 23:40:02;;;;;;;65.80;39.33;;;6.20;99.90;;;;;;4954465;29;20050;-91
2023/01/12 23:42:32;;;;;;;67.80;38.15;;;6.30;99.90;;;;;;4938747;29;20023;-92
2023/01/12 23:44:58;;;;;;;60.88;35.42;;;6.30;99.90;;;;;;4938882;29;20134;-93
2023/01/12 23:47:27;;;;;;;60.78;34.72;;;6.30;99.90;;;;;;4938239;29;20047;-91
2023/01/12 23:49:54;;;;;;;51.75;32.13;;;6.40;99.90;;;;;;4938482;29;20122;-90
2023/01/12 23:52:20;;;;;;;53.55;33.00;;;6.40;99.90;;;;;;4938435;29;20043;-92
2023/01/12 23:54:46;;;;;;;53.15;33.00;;;6.40;99.90;;;;;;4938693;29;20121;-92
2023/01/12 23:57:13;;;;;;;48.78;32.30;;;6.50;99.90;;;;;;4938540;29;20086;-92
2023/01/12 23:59:39;;;;;;;52.70;31.25;;;6.50;99.90;;;;;;4938517;29;20098;-92
